sensor_id;sensor_type;location;lat;lon;timestamp;P1;durP1;ratioP1;P2;durP2;ratioP2
32393;SDS011;18853;45.426;9.206;2023-03-23T00:01:09;5.85;;;3.78;;
32393;SDS011;18853;45.426;9.206;2023-03-23T00:03:37;6.80;;;3.70;;
32393;SDS011;18853;45.426;9.206;2023-03-23T00:06:04;7.85;;;3.10;;
32393;SDS011;18853;45.426;9.206;2023-03-23T00:08:35;6.00;;;3.47;;
32393;SDS011;18853;45.426;9.206;2023-03-23T00:11:03;7.30;;;3.63;;
32393;SDS011;18853;45.426;9.206;2023-03-23T00:13:29;6.05;;;3.30;;
32393;SDS011;18853;45.426;9.206;2023-03-23T00:15:56;7.93;;;3.50;;
32393;SDS011;18853;45.426;9.206;2023-03-23T00:18:22;6.65;;;3.60;;
32393;SDS011;18853;45.426;9.206;2023-03-23T00:20:52;7.55;;;3.50;;
32393;SDS011;18853;45.426;9.206;2023-03-23T00:23:20;6.07;;;2.97;;
32393;SDS011;18853;45.426;9.206;2023-03-23T00:25:49;6.55;;;3.42;;
32393;SDS011;18853;45.426;9.206;2023-03-23T00:28:18;7.00;;;4.03;;
32393;SDS011;18853;45.426;9.206;2023-03-23T00:30:54;4.55;;;3.17;;
32393;SDS011;18853;45.426;9.206;2023-03-23T00:33:24;6.45;;;3.30;;
32393;SDS011;18853;45.426;9.206;2023-03-23T00:35:51;6.03;;;3.70;;
32393;SDS011;18853;45.426;9.206;2023-03-23T00:38:18;4.82;;;3.03;;
32393;SDS011;18853;45.426;9.206;2023-03-23T00:44:09;5.55;;;3.15;;
32393;SDS011;18853;45.426;9.206;2023-03-23T00:46:41;4.90;;;3.47;;
32393;SDS011;18853;45.426;9.206;2023-03-23T00:49:11;4.65;;;3.00;;
32393;SDS011;18853;45.426;9.206;2023-03-23T00:51:38;4.38;;;3.10;;
32393;SDS011;18853;45.426;9.206;2023-03-23T00:54:05;7.18;;;3.30;;
32393;SDS011;18853;45.426;9.206;2023-03-23T00:56:31;7.53;;;3.60;;
32393;SDS011;18853;45.426;9.206;2023-03-23T00:58:57;5.03;;;3.25;;
32393;SDS011;18853;45.426;9.206;2023-03-23T01:01:22;5.53;;;3.30;;
32393;SDS011;18853;45.426;9.206;2023-03-23T01:03:48;4.45;;;2.80;;
32393;SDS011;18853;45.426;9.206;2023-03-23T01:06:14;6.88;;;3.28;;
32393;SDS011;18853;45.426;9.206;2023-03-23T01:08:40;4.30;;;3.03;;
32393;SDS011;18853;45.426;9.206;2023-03-23T01:11:11;6.75;;;3.70;;
32393;SDS011;18853;45.426;9.206;2023-03-23T01:16:32;4.72;;;3.30;;
32393;SDS011;18853;45.426;9.206;2023-03-23T01:18:58;6.45;;;3.60;;
32393;SDS011;18853;45.426;9.206;2023-03-23T01:21:24;5.93;;;3.95;;
32393;SDS011;18853;45.426;9.206;2023-03-23T01:23:50;6.03;;;3.25;;
32393;SDS011;18853;45.426;9.206;2023-03-23T01:26:17;7.47;;;3.55;;
32393;SDS011;18853;45.426;9.206;2023-03-23T01:28:45;5.40;;;3.42;;
32393;SDS011;18853;45.426;9.206;2023-03-23T01:31:13;6.45;;;3.50;;
32393;SDS011;18853;45.426;9.206;2023-03-23T01:33:46;5.45;;;3.28;;
32393;SDS011;18853;45.426;9.206;2023-03-23T01:36:14;5.20;;;3.42;;
32393;SDS011;18853;45.426;9.206;2023-03-23T01:38:42;5.85;;;3.70;;
32393;SDS011;18853;45.426;9.206;2023-03-23T01:41:09;6.95;;;3.15;;
32393;SDS011;18853;45.426;9.206;2023-03-23T01:43:36;4.82;;;3.40;;
32393;SDS011;18853;45.426;9.206;2023-03-23T01:46:18;5.60;;;3.42;;
32393;SDS011;18853;45.426;9.206;2023-03-23T01:48:43;6.82;;;3.58;;
32393;SDS011;18853;45.426;9.206;2023-03-23T01:51:13;5.75;;;3.30;;
32393;SDS011;18853;45.426;9.206;2023-03-23T01:53:51;4.35;;;3.30;;
32393;SDS011;18853;45.426;9.206;2023-03-23T01:56:22;5.38;;;3.70;;
32393;SDS011;18853;45.426;9.206;2023-03-23T01:58:55;6.03;;;3.55;;
32393;SDS011;18853;45.426;9.206;2023-03-23T02:01:21;5.13;;;3.22;;
32393;SDS011;18853;45.426;9.206;2023-03-23T02:03:51;6.38;;;3.97;;
32393;SDS011;18853;45.426;9.206;2023-03-23T02:06:19;6.90;;;3.95;;
32393;SDS011;18853;45.426;9.206;2023-03-23T02:08:44;6.38;;;4.03;;
32393;SDS011;18853;45.426;9.206;2023-03-23T02:11:20;6.45;;;3.60;;
32393;SDS011;18853;45.426;9.206;2023-03-23T02:13:47;5.55;;;3.47;;
32393;SDS011;18853;45.426;9.206;2023-03-23T02:26:55;5.82;;;3.25;;
32393;SDS011;18853;45.426;9.206;2023-03-23T02:41:45;5.35;;;3.90;;
32393;SDS011;18853;45.426;9.206;2023-03-23T02:44:15;6.05;;;3.67;;
32393;SDS011;18853;45.426;9.206;2023-03-23T02:46:42;7.20;;;4.15;;
32393;SDS011;18853;45.426;9.206;2023-03-23T02:49:09;6.07;;;3.55;;
32393;SDS011;18853;45.426;9.206;2023-03-23T02:51:39;4.78;;;3.53;;
32393;SDS011;18853;45.426;9.206;2023-03-23T02:54:08;6.80;;;3.85;;
32393;SDS011;18853;45.426;9.206;2023-03-23T02:56:36;5.82;;;3.70;;
32393;SDS011;18853;45.426;9.206;2023-03-23T02:59:03;7.32;;;3.80;;
32393;SDS011;18853;45.426;9.206;2023-03-23T03:03:57;5.20;;;3.33;;
32393;SDS011;18853;45.426;9.206;2023-03-23T03:18:32;5.28;;;3.30;;
32393;SDS011;18853;45.426;9.206;2023-03-23T03:20:46;7.13;;;3.60;;
32393;SDS011;18853;45.426;9.206;2023-03-23T03:23:19;5.68;;;3.75;;
32393;SDS011;18853;45.426;9.206;2023-03-23T03:25:47;5.78;;;3.67;;
32393;SDS011;18853;45.426;9.206;2023-03-23T03:28:16;7.15;;;4.05;;
32393;SDS011;18853;45.426;9.206;2023-03-23T03:30:46;5.55;;;3.47;;
32393;SDS011;18853;45.426;9.206;2023-03-23T03:33:16;6.50;;;3.58;;
32393;SDS011;18853;45.426;9.206;2023-03-23T03:35:45;4.40;;;3.40;;
32393;SDS011;18853;45.426;9.206;2023-03-23T03:38:12;5.68;;;3.83;;
32393;SDS011;18853;45.426;9.206;2023-03-23T03:40:38;5.60;;;3.80;;
32393;SDS011;18853;45.426;9.206;2023-03-23T03:43:04;5.53;;;4.00;;
32393;SDS011;18853;45.426;9.206;2023-03-23T03:45:31;6.07;;;4.03;;
32393;SDS011;18853;45.426;9.206;2023-03-23T03:47:57;5.68;;;3.70;;
32393;SDS011;18853;45.426;9.206;2023-03-23T03:50:23;5.72;;;3.22;;
32393;SDS011;18853;45.426;9.206;2023-03-23T03:52:48;7.25;;;3.83;;
32393;SDS011;18853;45.426;9.206;2023-03-23T03:55:14;4.50;;;3.65;;
32393;SDS011;18853;45.426;9.206;2023-03-23T03:57:42;6.93;;;3.95;;
32393;SDS011;18853;45.426;9.206;2023-03-23T04:00:09;6.40;;;3.78;;
32393;SDS011;18853;45.426;9.206;2023-03-23T04:02:45;6.65;;;4.13;;
32393;SDS011;18853;45.426;9.206;2023-03-23T04:05:15;6.82;;;4.28;;
32393;SDS011;18853;45.426;9.206;2023-03-23T04:07:41;6.80;;;4.03;;
32393;SDS011;18853;45.426;9.206;2023-03-23T04:10:07;7.10;;;4.38;;
32393;SDS011;18853;45.426;9.206;2023-03-23T04:12:35;6.30;;;4.22;;
32393;SDS011;18853;45.426;9.206;2023-03-23T04:15:01;9.32;;;4.47;;
32393;SDS011;18853;45.426;9.206;2023-03-23T04:17:28;8.27;;;4.28;;
32393;SDS011;18853;45.426;9.206;2023-03-23T04:19:54;6.82;;;4.72;;
32393;SDS011;18853;45.426;9.206;2023-03-23T04:22:25;5.88;;;4.00;;
32393;SDS011;18853;45.426;9.206;2023-03-23T04:24:55;7.97;;;4.78;;
32393;SDS011;18853;45.426;9.206;2023-03-23T04:27:23;7.93;;;4.60;;
32393;SDS011;18853;45.426;9.206;2023-03-23T04:29:50;8.10;;;4.57;;
32393;SDS011;18853;45.426;9.206;2023-03-23T04:32:16;6.25;;;4.85;;
32393;SDS011;18853;45.426;9.206;2023-03-23T04:34:44;4.90;;;4.20;;
32393;SDS011;18853;45.426;9.206;2023-03-23T04:37:10;6.93;;;4.50;;
32393;SDS011;18853;45.426;9.206;2023-03-23T04:39:38;5.82;;;4.50;;
32393;SDS011;18853;45.426;9.206;2023-03-23T04:42:05;5.88;;;4.38;;
32393;SDS011;18853;45.426;9.206;2023-03-23T04:44:31;7.05;;;4.40;;
32393;SDS011;18853;45.426;9.206;2023-03-23T04:46:57;7.70;;;5.03;;
32393;SDS011;18853;45.426;9.206;2023-03-23T04:49:26;6.72;;;4.55;;
32393;SDS011;18853;45.426;9.206;2023-03-23T04:51:52;7.82;;;4.13;;
32393;SDS011;18853;45.426;9.206;2023-03-23T04:54:18;9.07;;;4.78;;
32393;SDS011;18853;45.426;9.206;2023-03-23T04:56:43;7.57;;;5.00;;
32393;SDS011;18853;45.426;9.206;2023-03-23T04:59:09;7.97;;;4.90;;
32393;SDS011;18853;45.426;9.206;2023-03-23T05:01:36;6.60;;;4.72;;
32393;SDS011;18853;45.426;9.206;2023-03-23T05:04:03;7.85;;;4.82;;
32393;SDS011;18853;45.426;9.206;2023-03-23T05:06:29;5.65;;;5.00;;
32393;SDS011;18853;45.426;9.206;2023-03-23T05:08:55;7.93;;;4.60;;
32393;SDS011;18853;45.426;9.206;2023-03-23T05:11:20;8.07;;;5.00;;
32393;SDS011;18853;45.426;9.206;2023-03-23T05:13:46;7.38;;;4.90;;
32393;SDS011;18853;45.426;9.206;2023-03-23T05:16:12;8.48;;;5.28;;
32393;SDS011;18853;45.426;9.206;2023-03-23T05:18:37;8.25;;;4.68;;
32393;SDS011;18853;45.426;9.206;2023-03-23T05:21:03;6.97;;;5.45;;
32393;SDS011;18853;45.426;9.206;2023-03-23T05:23:29;9.43;;;5.18;;
32393;SDS011;18853;45.426;9.206;2023-03-23T05:25:58;9.02;;;4.72;;
32393;SDS011;18853;45.426;9.206;2023-03-23T05:28:27;6.57;;;4.47;;
32393;SDS011;18853;45.426;9.206;2023-03-23T05:30:55;6.07;;;4.60;;
32393;SDS011;18853;45.426;9.206;2023-03-23T05:33:21;7.40;;;4.88;;
32393;SDS011;18853;45.426;9.206;2023-03-23T05:35:47;6.72;;;4.53;;
32393;SDS011;18853;45.426;9.206;2023-03-23T05:38:14;8.20;;;4.72;;
32393;SDS011;18853;45.426;9.206;2023-03-23T05:40:41;6.85;;;4.57;;
32393;SDS011;18853;45.426;9.206;2023-03-23T05:43:07;7.90;;;5.13;;
32393;SDS011;18853;45.426;9.206;2023-03-23T05:45:33;5.40;;;4.15;;
32393;SDS011;18853;45.426;9.206;2023-03-23T05:48:00;8.77;;;4.88;;
32393;SDS011;18853;45.426;9.206;2023-03-23T05:50:26;7.72;;;4.32;;
32393;SDS011;18853;45.426;9.206;2023-03-23T05:52:53;8.95;;;4.53;;
32393;SDS011;18853;45.426;9.206;2023-03-23T05:55:19;7.53;;;4.72;;
32393;SDS011;18853;45.426;9.206;2023-03-23T05:57:45;8.43;;;5.20;;
32393;SDS011;18853;45.426;9.206;2023-03-23T06:00:11;9.27;;;4.65;;
32393;SDS011;18853;45.426;9.206;2023-03-23T06:02:44;8.45;;;4.75;;
32393;SDS011;18853;45.426;9.206;2023-03-23T06:05:10;8.77;;;4.70;;
32393;SDS011;18853;45.426;9.206;2023-03-23T06:07:36;6.80;;;4.60;;
32393;SDS011;18853;45.426;9.206;2023-03-23T06:10:05;10.30;;;5.30;;
32393;SDS011;18853;45.426;9.206;2023-03-23T06:12:32;7.20;;;5.15;;
32393;SDS011;18853;45.426;9.206;2023-03-23T06:14:58;6.25;;;4.70;;
32393;SDS011;18853;45.426;9.206;2023-03-23T06:17:23;6.30;;;4.80;;
32393;SDS011;18853;45.426;9.206;2023-03-23T06:19:50;7.57;;;4.63;;
32393;SDS011;18853;45.426;9.206;2023-03-23T06:22:16;7.85;;;5.13;;
32393;SDS011;18853;45.426;9.206;2023-03-23T06:24:43;7.78;;;5.13;;
32393;SDS011;18853;45.426;9.206;2023-03-23T06:27:10;9.82;;;5.05;;
32393;SDS011;18853;45.426;9.206;2023-03-23T06:29:36;8.13;;;4.80;;
32393;SDS011;18853;45.426;9.206;2023-03-23T06:32:02;7.95;;;4.80;;
32393;SDS011;18853;45.426;9.206;2023-03-23T06:34:29;6.57;;;4.38;;
32393;SDS011;18853;45.426;9.206;2023-03-23T06:36:57;10.13;;;4.50;;
32393;SDS011;18853;45.426;9.206;2023-03-23T06:39:23;7.68;;;4.70;;
32393;SDS011;18853;45.426;9.206;2023-03-23T06:41:49;7.97;;;4.90;;
32393;SDS011;18853;45.426;9.206;2023-03-23T06:44:15;8.23;;;4.82;;
32393;SDS011;18853;45.426;9.206;2023-03-23T06:46:41;6.22;;;4.82;;
32393;SDS011;18853;45.426;9.206;2023-03-23T06:49:07;7.03;;;4.65;;
32393;SDS011;18853;45.426;9.206;2023-03-23T06:51:33;9.52;;;4.57;;
32393;SDS011;18853;45.426;9.206;2023-03-23T06:54:00;8.40;;;4.85;;
32393;SDS011;18853;45.426;9.206;2023-03-23T06:56:26;9.13;;;6.03;;
32393;SDS011;18853;45.426;9.206;2023-03-23T06:58:52;7.85;;;4.38;;
32393;SDS011;18853;45.426;9.206;2023-03-23T07:01:17;7.68;;;5.20;;
32393;SDS011;18853;45.426;9.206;2023-03-23T07:03:43;9.00;;;5.20;;
32393;SDS011;18853;45.426;9.206;2023-03-23T07:06:10;9.13;;;4.72;;
32393;SDS011;18853;45.426;9.206;2023-03-23T07:08:37;13.02;;;4.60;;
32393;SDS011;18853;45.426;9.206;2023-03-23T07:11:03;6.90;;;4.13;;
32393;SDS011;18853;45.426;9.206;2023-03-23T07:13:29;6.13;;;4.63;;
32393;SDS011;18853;45.426;9.206;2023-03-23T07:15:55;6.78;;;4.18;;
32393;SDS011;18853;45.426;9.206;2023-03-23T07:18:22;9.45;;;4.95;;
32393;SDS011;18853;45.426;9.206;2023-03-23T07:20:48;8.07;;;4.45;;
32393;SDS011;18853;45.426;9.206;2023-03-23T07:23:15;7.45;;;3.97;;
32393;SDS011;18853;45.426;9.206;2023-03-23T07:25:41;6.82;;;4.50;;
32393;SDS011;18853;45.426;9.206;2023-03-23T07:28:08;7.50;;;4.72;;
32393;SDS011;18853;45.426;9.206;2023-03-23T07:30:34;10.15;;;4.55;;
32393;SDS011;18853;45.426;9.206;2023-03-23T07:33:03;7.35;;;4.20;;
32393;SDS011;18853;45.426;9.206;2023-03-23T07:35:30;7.97;;;4.75;;
32393;SDS011;18853;45.426;9.206;2023-03-23T07:37:56;10.30;;;4.43;;
32393;SDS011;18853;45.426;9.206;2023-03-23T07:40:22;6.82;;;4.20;;
32393;SDS011;18853;45.426;9.206;2023-03-23T07:42:51;13.15;;;4.75;;
32393;SDS011;18853;45.426;9.206;2023-03-23T07:45:19;7.45;;;4.53;;
32393;SDS011;18853;45.426;9.206;2023-03-23T07:47:44;6.53;;;4.10;;
32393;SDS011;18853;45.426;9.206;2023-03-23T07:50:10;7.00;;;3.80;;
32393;SDS011;18853;45.426;9.206;2023-03-23T07:52:37;6.95;;;4.20;;
32393;SDS011;18853;45.426;9.206;2023-03-23T07:55:05;6.50;;;4.35;;
32393;SDS011;18853;45.426;9.206;2023-03-23T07:57:33;11.15;;;5.18;;
32393;SDS011;18853;45.426;9.206;2023-03-23T07:59:59;16.10;;;9.43;;
32393;SDS011;18853;45.426;9.206;2023-03-23T08:02:25;20.42;;;10.60;;
32393;SDS011;18853;45.426;9.206;2023-03-23T08:04:51;17.27;;;8.35;;
32393;SDS011;18853;45.426;9.206;2023-03-23T08:07:18;10.98;;;6.57;;
32393;SDS011;18853;45.426;9.206;2023-03-23T08:09:45;12.13;;;5.85;;
32393;SDS011;18853;45.426;9.206;2023-03-23T08:12:12;9.70;;;5.65;;
32393;SDS011;18853;45.426;9.206;2023-03-23T08:14:38;16.30;;;7.55;;
32393;SDS011;18853;45.426;9.206;2023-03-23T08:17:05;9.50;;;5.75;;
32393;SDS011;18853;45.426;9.206;2023-03-23T08:19:31;9.25;;;5.25;;
32393;SDS011;18853;45.426;9.206;2023-03-23T08:22:01;8.70;;;5.38;;
32393;SDS011;18853;45.426;9.206;2023-03-23T08:24:28;17.10;;;6.38;;
32393;SDS011;18853;45.426;9.206;2023-03-23T08:26:54;7.70;;;5.18;;
32393;SDS011;18853;45.426;9.206;2023-03-23T08:29:19;13.80;;;5.60;;
32393;SDS011;18853;45.426;9.206;2023-03-23T08:31:45;22.75;;;15.27;;
32393;SDS011;18853;45.426;9.206;2023-03-23T08:34:12;38.72;;;24.92;;
32393;SDS011;18853;45.426;9.206;2023-03-23T08:36:38;20.08;;;11.00;;
32393;SDS011;18853;45.426;9.206;2023-03-23T08:39:03;18.90;;;13.85;;
32393;SDS011;18853;45.426;9.206;2023-03-23T08:41:30;20.55;;;14.13;;
32393;SDS011;18853;45.426;9.206;2023-03-23T08:43:56;13.15;;;9.82;;
32393;SDS011;18853;45.426;9.206;2023-03-23T08:46:22;18.75;;;11.32;;
32393;SDS011;18853;45.426;9.206;2023-03-23T08:48:48;15.43;;;9.60;;
32393;SDS011;18853;45.426;9.206;2023-03-23T08:51:14;16.30;;;10.27;;
32393;SDS011;18853;45.426;9.206;2023-03-23T08:53:40;10.18;;;8.13;;
32393;SDS011;18853;45.426;9.206;2023-03-23T08:56:08;15.50;;;9.52;;
32393;SDS011;18853;45.426;9.206;2023-03-23T08:58:38;12.90;;;9.90;;
32393;SDS011;18853;45.426;9.206;2023-03-23T09:01:05;10.50;;;9.40;;
32393;SDS011;18853;45.426;9.206;2023-03-23T09:03:32;8.52;;;6.60;;
32393;SDS011;18853;45.426;9.206;2023-03-23T09:06:04;11.77;;;8.05;;
32393;SDS011;18853;45.426;9.206;2023-03-23T09:08:31;9.77;;;7.85;;
32393;SDS011;18853;45.426;9.206;2023-03-23T09:11:04;8.65;;;7.55;;
32393;SDS011;18853;45.426;9.206;2023-03-23T09:13:35;10.98;;;7.25;;
32393;SDS011;18853;45.426;9.206;2023-03-23T09:16:02;10.43;;;6.35;;
32393;SDS011;18853;45.426;9.206;2023-03-23T09:18:29;9.35;;;4.95;;
32393;SDS011;18853;45.426;9.206;2023-03-23T09:20:57;7.85;;;5.40;;
32393;SDS011;18853;45.426;9.206;2023-03-23T09:23:23;9.68;;;5.63;;
32393;SDS011;18853;45.426;9.206;2023-03-23T09:25:49;12.65;;;5.03;;
32393;SDS011;18853;45.426;9.206;2023-03-23T09:28:16;8.85;;;4.88;;
32393;SDS011;18853;45.426;9.206;2023-03-23T09:30:43;7.72;;;4.55;;
32393;SDS011;18853;45.426;9.206;2023-03-23T09:33:10;9.40;;;4.93;;
32393;SDS011;18853;45.426;9.206;2023-03-23T09:35:36;7.90;;;4.60;;
32393;SDS011;18853;45.426;9.206;2023-03-23T09:38:04;5.72;;;4.10;;
32393;SDS011;18853;45.426;9.206;2023-03-23T09:52:02;7.18;;;4.20;;
32393;SDS011;18853;45.426;9.206;2023-03-23T09:56:40;6.88;;;4.20;;
32393;SDS011;18853;45.426;9.206;2023-03-23T10:02:14;6.97;;;4.20;;
32393;SDS011;18853;45.426;9.206;2023-03-23T10:04:46;7.22;;;4.22;;
32393;SDS011;18853;45.426;9.206;2023-03-23T10:07:17;6.90;;;4.25;;
32393;SDS011;18853;45.426;9.206;2023-03-23T10:09:44;7.45;;;4.65;;
32393;SDS011;18853;45.426;9.206;2023-03-23T10:17:50;6.85;;;4.63;;
32393;SDS011;18853;45.426;9.206;2023-03-23T10:25:59;6.90;;;4.90;;
32393;SDS011;18853;45.426;9.206;2023-03-23T10:31:04;8.18;;;5.22;;
32393;SDS011;18853;45.426;9.206;2023-03-23T10:33:41;7.05;;;5.45;;
32393;SDS011;18853;45.426;9.206;2023-03-23T10:36:13;8.63;;;5.28;;
32393;SDS011;18853;45.426;9.206;2023-03-23T10:38:49;9.20;;;6.38;;
32393;SDS011;18853;45.426;9.206;2023-03-23T10:41:19;8.25;;;5.95;;
32393;SDS011;18853;45.426;9.206;2023-03-23T10:43:46;8.20;;;4.88;;
32393;SDS011;18853;45.426;9.206;2023-03-23T10:49:02;6.88;;;5.75;;
32393;SDS011;18853;45.426;9.206;2023-03-23T10:51:41;6.70;;;4.85;;
32393;SDS011;18853;45.426;9.206;2023-03-23T10:54:09;13.80;;;7.25;;
32393;SDS011;18853;45.426;9.206;2023-03-23T10:56:36;7.18;;;5.10;;
32393;SDS011;18853;45.426;9.206;2023-03-23T11:01:51;12.38;;;6.25;;
32393;SDS011;18853;45.426;9.206;2023-03-23T11:04:19;9.38;;;5.95;;
32393;SDS011;18853;45.426;9.206;2023-03-23T11:07:10;7.93;;;5.30;;
32393;SDS011;18853;45.426;9.206;2023-03-23T11:09:50;7.90;;;5.65;;
32393;SDS011;18853;45.426;9.206;2023-03-23T11:12:19;13.57;;;7.22;;
32393;SDS011;18853;45.426;9.206;2023-03-23T11:14:45;10.60;;;6.38;;
32393;SDS011;18853;45.426;9.206;2023-03-23T11:17:24;8.13;;;5.60;;
32393;SDS011;18853;45.426;9.206;2023-03-23T11:19:51;10.82;;;6.55;;
32393;SDS011;18853;45.426;9.206;2023-03-23T11:22:27;14.48;;;9.95;;
32393;SDS011;18853;45.426;9.206;2023-03-23T11:24:58;14.18;;;9.73;;
32393;SDS011;18853;45.426;9.206;2023-03-23T11:27:26;9.50;;;7.57;;
32393;SDS011;18853;45.426;9.206;2023-03-23T11:29:54;8.95;;;6.53;;
32393;SDS011;18853;45.426;9.206;2023-03-23T11:32:43;8.88;;;6.20;;
32393;SDS011;18853;45.426;9.206;2023-03-23T11:35:17;13.45;;;9.73;;
32393;SDS011;18853;45.426;9.206;2023-03-23T11:37:58;15.48;;;11.10;;
32393;SDS011;18853;45.426;9.206;2023-03-23T11:40:25;10.10;;;6.78;;
32393;SDS011;18853;45.426;9.206;2023-03-23T11:45:39;11.68;;;9.95;;
32393;SDS011;18853;45.426;9.206;2023-03-23T11:50:55;14.07;;;11.50;;
32393;SDS011;18853;45.426;9.206;2023-03-23T11:59:02;12.40;;;9.32;;
32393;SDS011;18853;45.426;9.206;2023-03-23T12:04:30;13.20;;;11.02;;
32393;SDS011;18853;45.426;9.206;2023-03-23T12:07:02;14.10;;;10.25;;
32393;SDS011;18853;45.426;9.206;2023-03-23T12:15:24;13.38;;;9.02;;
32393;SDS011;18853;45.426;9.206;2023-03-23T12:28:31;10.15;;;7.90;;
32393;SDS011;18853;45.426;9.206;2023-03-23T12:31:15;17.08;;;10.93;;
32393;SDS011;18853;45.426;9.206;2023-03-23T12:48:28;13.77;;;10.38;;
32393;SDS011;18853;45.426;9.206;2023-03-23T12:53:52;11.30;;;9.90;;
32393;SDS011;18853;45.426;9.206;2023-03-23T12:59:03;11.27;;;7.90;;
32393;SDS011;18853;45.426;9.206;2023-03-23T13:01:51;12.32;;;8.80;;
32393;SDS011;18853;45.426;9.206;2023-03-23T13:04:25;13.98;;;8.15;;
32393;SDS011;18853;45.426;9.206;2023-03-23T13:06:57;11.90;;;7.90;;
32393;SDS011;18853;45.426;9.206;2023-03-23T13:12:14;9.43;;;6.05;;
32393;SDS011;18853;45.426;9.206;2023-03-23T13:22:59;10.98;;;7.40;;
32393;SDS011;18853;45.426;9.206;2023-03-23T13:28:27;12.48;;;8.57;;
32393;SDS011;18853;45.426;9.206;2023-03-23T13:33:21;9.50;;;7.20;;
32393;SDS011;18853;45.426;9.206;2023-03-23T13:35:48;9.48;;;7.15;;
32393;SDS011;18853;45.426;9.206;2023-03-23T13:38:25;9.98;;;7.43;;
32393;SDS011;18853;45.426;9.206;2023-03-23T13:40:55;10.73;;;6.53;;
32393;SDS011;18853;45.426;9.206;2023-03-23T13:43:30;12.90;;;7.65;;
32393;SDS011;18853;45.426;9.206;2023-03-23T13:46:09;12.30;;;6.85;;
32393;SDS011;18853;45.426;9.206;2023-03-23T13:48:51;11.85;;;6.80;;
32393;SDS011;18853;45.426;9.206;2023-03-23T13:51:36;11.50;;;7.55;;
32393;SDS011;18853;45.426;9.206;2023-03-23T13:54:25;12.23;;;7.05;;
32393;SDS011;18853;45.426;9.206;2023-03-23T14:01:53;11.63;;;8.15;;
32393;SDS011;18853;45.426;9.206;2023-03-23T14:04:20;10.00;;;7.75;;
32393;SDS011;18853;45.426;9.206;2023-03-23T14:06:49;10.10;;;7.30;;
32393;SDS011;18853;45.426;9.206;2023-03-23T14:09:18;12.63;;;6.07;;
32393;SDS011;18853;45.426;9.206;2023-03-23T14:14:25;12.82;;;7.05;;
32393;SDS011;18853;45.426;9.206;2023-03-23T14:19:41;12.57;;;6.82;;
32393;SDS011;18853;45.426;9.206;2023-03-23T14:22:18;10.50;;;6.20;;
32393;SDS011;18853;45.426;9.206;2023-03-23T14:24:52;12.32;;;6.70;;
32393;SDS011;18853;45.426;9.206;2023-03-23T14:27:25;10.40;;;6.57;;
32393;SDS011;18853;45.426;9.206;2023-03-23T14:29:58;9.90;;;6.38;;
32393;SDS011;18853;45.426;9.206;2023-03-23T14:32:27;8.13;;;5.43;;
32393;SDS011;18853;45.426;9.206;2023-03-23T14:34:56;9.95;;;6.40;;
32393;SDS011;18853;45.426;9.206;2023-03-23T14:37:22;9.60;;;4.80;;
32393;SDS011;18853;45.426;9.206;2023-03-23T14:39:49;7.55;;;4.88;;
32393;SDS011;18853;45.426;9.206;2023-03-23T14:42:19;10.25;;;6.03;;
32393;SDS011;18853;45.426;9.206;2023-03-23T14:44:55;8.35;;;5.82;;
32393;SDS011;18853;45.426;9.206;2023-03-23T14:47:23;10.95;;;5.38;;
32393;SDS011;18853;45.426;9.206;2023-03-23T14:49:53;7.45;;;5.93;;
32393;SDS011;18853;45.426;9.206;2023-03-23T14:52:22;9.20;;;6.80;;
32393;SDS011;18853;45.426;9.206;2023-03-23T14:54:50;9.68;;;5.32;;
32393;SDS011;18853;45.426;9.206;2023-03-23T14:57:20;13.75;;;6.28;;
32393;SDS011;18853;45.426;9.206;2023-03-23T14:59:52;10.32;;;5.95;;
32393;SDS011;18853;45.426;9.206;2023-03-23T15:04:52;8.52;;;5.93;;
32393;SDS011;18853;45.426;9.206;2023-03-23T15:07:31;8.80;;;5.82;;
32393;SDS011;18853;45.426;9.206;2023-03-23T15:09:59;11.45;;;6.75;;
32393;SDS011;18853;45.426;9.206;2023-03-23T15:12:28;11.07;;;7.55;;
32393;SDS011;18853;45.426;9.206;2023-03-23T15:14:56;9.48;;;6.78;;
32393;SDS011;18853;45.426;9.206;2023-03-23T15:17:26;13.20;;;7.47;;
32393;SDS011;18853;45.426;9.206;2023-03-23T15:19:54;12.60;;;7.63;;
32393;SDS011;18853;45.426;9.206;2023-03-23T15:22:25;13.07;;;6.38;;
32393;SDS011;18853;45.426;9.206;2023-03-23T15:25:03;9.68;;;5.72;;
32393;SDS011;18853;45.426;9.206;2023-03-23T15:27:40;8.98;;;6.40;;
32393;SDS011;18853;45.426;9.206;2023-03-23T15:33:21;10.85;;;7.07;;
32393;SDS011;18853;45.426;9.206;2023-03-23T15:35:47;11.73;;;7.10;;
32393;SDS011;18853;45.426;9.206;2023-03-23T15:38:35;11.20;;;6.30;;
32393;SDS011;18853;45.426;9.206;2023-03-23T15:41:19;11.45;;;7.82;;
32393;SDS011;18853;45.426;9.206;2023-03-23T15:43:51;9.20;;;7.13;;
32393;SDS011;18853;45.426;9.206;2023-03-23T15:46:23;8.57;;;5.50;;
32393;SDS011;18853;45.426;9.206;2023-03-23T15:51:26;10.40;;;6.38;;
32393;SDS011;18853;45.426;9.206;2023-03-23T15:53:54;8.35;;;6.18;;
32393;SDS011;18853;45.426;9.206;2023-03-23T15:56:20;8.75;;;5.75;;
32393;SDS011;18853;45.426;9.206;2023-03-23T15:58:47;10.65;;;6.15;;
32393;SDS011;18853;45.426;9.206;2023-03-23T16:01:14;11.95;;;6.28;;
32393;SDS011;18853;45.426;9.206;2023-03-23T16:03:49;7.97;;;5.10;;
32393;SDS011;18853;45.426;9.206;2023-03-23T16:06:18;10.15;;;6.43;;
32393;SDS011;18853;45.426;9.206;2023-03-23T16:08:45;10.02;;;6.85;;
32393;SDS011;18853;45.426;9.206;2023-03-23T16:11:12;11.93;;;7.18;;
32393;SDS011;18853;45.426;9.206;2023-03-23T16:13:40;9.35;;;5.50;;
32393;SDS011;18853;45.426;9.206;2023-03-23T16:16:06;8.82;;;6.40;;
32393;SDS011;18853;45.426;9.206;2023-03-23T16:18:38;10.07;;;7.25;;
32393;SDS011;18853;45.426;9.206;2023-03-23T16:21:04;8.85;;;5.93;;
32393;SDS011;18853;45.426;9.206;2023-03-23T16:23:30;9.60;;;6.30;;
32393;SDS011;18853;45.426;9.206;2023-03-23T16:25:55;9.18;;;5.75;;
32393;SDS011;18853;45.426;9.206;2023-03-23T16:28:21;13.68;;;7.15;;
32393;SDS011;18853;45.426;9.206;2023-03-23T16:30:47;11.35;;;6.60;;
32393;SDS011;18853;45.426;9.206;2023-03-23T16:33:13;7.97;;;6.43;;
32393;SDS011;18853;45.426;9.206;2023-03-23T16:35:39;13.55;;;8.02;;
32393;SDS011;18853;45.426;9.206;2023-03-23T16:38:05;12.43;;;7.75;;
32393;SDS011;18853;45.426;9.206;2023-03-23T16:40:31;10.63;;;6.95;;
32393;SDS011;18853;45.426;9.206;2023-03-23T16:42:57;10.98;;;7.43;;
32393;SDS011;18853;45.426;9.206;2023-03-23T16:45:23;10.10;;;6.78;;
32393;SDS011;18853;45.426;9.206;2023-03-23T16:47:51;11.57;;;8.05;;
32393;SDS011;18853;45.426;9.206;2023-03-23T16:50:19;13.52;;;6.80;;
32393;SDS011;18853;45.426;9.206;2023-03-23T16:52:45;14.23;;;6.22;;
32393;SDS011;18853;45.426;9.206;2023-03-23T16:55:12;9.13;;;5.70;;
32393;SDS011;18853;45.426;9.206;2023-03-23T16:57:39;9.55;;;5.60;;
32393;SDS011;18853;45.426;9.206;2023-03-23T17:00:06;9.35;;;4.82;;
32393;SDS011;18853;45.426;9.206;2023-03-23T17:02:35;9.40;;;5.30;;
32393;SDS011;18853;45.426;9.206;2023-03-23T17:05:02;7.15;;;4.30;;
32393;SDS011;18853;45.426;9.206;2023-03-23T17:07:28;8.35;;;4.50;;
32393;SDS011;18853;45.426;9.206;2023-03-23T17:09:54;9.15;;;4.45;;
32393;SDS011;18853;45.426;9.206;2023-03-23T17:12:20;9.00;;;4.28;;
32393;SDS011;18853;45.426;9.206;2023-03-23T17:14:45;6.13;;;4.07;;
32393;SDS011;18853;45.426;9.206;2023-03-23T17:17:11;8.20;;;3.95;;
32393;SDS011;18853;45.426;9.206;2023-03-23T17:19:37;8.43;;;3.88;;
32393;SDS011;18853;45.426;9.206;2023-03-23T17:22:03;10.38;;;4.13;;
32393;SDS011;18853;45.426;9.206;2023-03-23T17:24:29;6.07;;;3.67;;
32393;SDS011;18853;45.426;9.206;2023-03-23T17:26:55;6.32;;;4.50;;
32393;SDS011;18853;45.426;9.206;2023-03-23T17:29:21;6.93;;;3.90;;
32393;SDS011;18853;45.426;9.206;2023-03-23T17:31:47;7.22;;;3.85;;
32393;SDS011;18853;45.426;9.206;2023-03-23T17:34:13;10.82;;;3.72;;
32393;SDS011;18853;45.426;9.206;2023-03-23T17:36:40;15.35;;;4.18;;